Observation data for Muleshoe on 07/03/2020      Previous  Date  Next       Current Mesonet Observations  Soil Data  Daily Summary Page  Observations in Plain Language
KMUS 030500Z 10009KT 25/18 A3009 RMK A01 T02520176  RH  066%=      5-min Rain = 0
KMUS 030505Z 10008KT 25/18 A3009 RMK A01 T02520175  RH  066%=      5-min Rain = 0
KMUS 030510Z 10007KT 25/18 A301 RMK A01 T02530175  RH  065%=      5-min Rain = 0
KMUS 030515Z 09008KT 25/18 A301 RMK A01 T02500177  RH  067%=      5-min Rain = 0
KMUS 030520Z 09007KT 25/18 A301 RMK A01 T02460177  RH  068%=      5-min Rain = 0
KMUS 030525Z 08009KT 25/18 A301 RMK A01 T02470176  RH  068%=      5-min Rain = 0
KMUS 030530Z 08008KT 25/18 A301 RMK A01 T02470176  RH  068%=      5-min Rain = 0
KMUS 030535Z 09007KT 25/18 A3011 RMK A01 T02470176  RH  068%=      5-min Rain = 0
KMUS 030540Z 08008KT 25/18 A3011 RMK A01 T02470176  RH  068%=      5-min Rain = 0
KMUS 030545Z 08008KT 25/18 A3012 RMK A01 T02460177  RH  069%=      5-min Rain = 0
KMUS 030550Z 07007KT 24/18 A3012 RMK A01 T02440177  RH  070%=      5-min Rain = 0
KMUS 030555Z 08008KT 24/18 A3012 RMK A01 T02420177  RH  071%=      5-min Rain = 0
KMUS 030600Z 08008KT 24/18 A3012 RMK A01 T02410177  RH  071%=      5-min Rain = 0
KMUS 030605Z 08007KT 24/18 A3012 RMK A01 T02400178  RH  072%=      5-min Rain = 0
KMUS 030610Z 08007KT 24/18 A3011 RMK A01 T02390178  RH  073%=      5-min Rain = 0
KMUS 030615Z 08007KT 24/18 A3011 RMK A01 T02380178  RH  073%=      5-min Rain = 0
KMUS 030620Z 09007KT 24/18 A3011 RMK A01 T02370179  RH  073%=      5-min Rain = 0
KMUS 030625Z 09006KT 24/18 A3011 RMK A01 T02370179  RH  073%=      5-min Rain = 0
KMUS 030630Z 08005KT 24/18 A3011 RMK A01 T02370179  RH  074%=      5-min Rain = 0
KMUS 030635Z 09005KT 24/18 A3011 RMK A01 T02370179  RH  074%=      5-min Rain = 0
KMUS 030640Z 09006KT 24/18 A3011 RMK A01 T02370179  RH  074%=      5-min Rain = 0
KMUS 030645Z 09006KT 24/18 A3011 RMK A01 T02370179  RH  074%=      5-min Rain = 0
KMUS 030650Z 09006KT 24/18 A3012 RMK A01 T02370179  RH  074%=      5-min Rain = 0
KMUS 030655Z 09004KT 24/18 A3012 RMK A01 T02380179  RH  074%=      5-min Rain = 0
KMUS 030700Z 25004G15KT 24/18 A3013 RMK A01 T02380180  RH  074%=      5-min Rain = 0
KMUS 030705Z 27013KT 23/16 A3013 RMK A01 T02340160  RH  066%=      5-min Rain = 0
KMUS 030710Z 28008G20KT 23/15 A3013 RMK A01 T02280152  RH  065%=      5-min Rain = 0
KMUS 030715Z 24016G22KT 23/16 A3013 RMK A01 T02300158  RH  067%=      5-min Rain = 0
KMUS 030720Z 23017G27KT 23/16 A3014 RMK A01 T02250163  RH  071%=      5-min Rain = 0
KMUS 030725Z 23018G25KT 21/17 A3014 RMK A01 T02100171  RH  082%=      5-min Rain = 0.05
KMUS 030730Z 24019G25KT 20/17 A3014 RMK A01 T02030173  RH  087%=      5-min Rain = 0.01
KMUS 030735Z 23018KT 20/17 A3013 RMK A01 T02030174  RH  088%=      5-min Rain = 0.01
KMUS 030740Z 22016KT 20/17 A3012 RMK A01 T02020166  RH  083%=      5-min Rain = 0.03
KMUS 030745Z 21015KT 20/16 A3011 RMK A01 T02000163  RH  083%=      5-min Rain = 0.01
KMUS 030750Z 20016KT 20/16 A3011 RMK A01 T02010162  RH  082%=      5-min Rain = 0
KMUS 030755Z 19020G25KT 21/17 A301 RMK A01 T02070172  RH  085%=      5-min Rain = 0
KMUS 030800Z 18018G26KT 21/18 A3009 RMK A01 T02120176  RH  084%=      5-min Rain = 0
KMUS 030805Z 18020G26KT 21/17 A3009 RMK A01 T02050169  RH  084%=      5-min Rain = 0
KMUS 030810Z 18018G24KT 20/16 A3009 RMK A01 T01980163  RH  084%=      5-min Rain = 0
KMUS 030815Z 18019G24KT 20/16 A3009 RMK A01 T01960162  RH  085%=      5-min Rain = 0
KMUS 030820Z 18019G24KT 19/16 A3008 RMK A01 T01930158  RH  084%=      5-min Rain = 0
KMUS 030825Z 18019G24KT 19/16 A3008 RMK A01 T01920156  RH  083%=      5-min Rain = 0
KMUS 030830Z 18017G22KT 19/16 A3008 RMK A01 T01910156  RH  084%=      5-min Rain = 0
KMUS 030835Z 18015G21KT 20/15 A3007 RMK A01 T01950154  RH  081%=      5-min Rain = 0
KMUS 030840Z 18012KT 20/15 A3007 RMK A01 T01980154  RH  080%=      5-min Rain = 0.01
KMUS 030845Z 17010KT 20/16 A3007 RMK A01 T01960156  RH  081%=      5-min Rain = 0
KMUS 030850Z 18010KT 20/16 A3006 RMK A01 T01980156  RH  080%=      5-min Rain = 0
KMUS 030855Z 19009KT 20/15 A3006 RMK A01 T02040154  RH  076%=      5-min Rain = 0
KMUS 030900Z 20013KT 21/15 A3005 RMK A01 T02070149  RH  073%=      5-min Rain = 0
KMUS 030905Z 21013KT 21/15 A3005 RMK A01 T02130148  RH  069%=      5-min Rain = 0
KMUS 030910Z 21019G26KT 22/15 A3004 RMK A01 T02170149  RH  068%=      5-min Rain = 0
KMUS 030915Z 20018G23KT 22/15 A3004 RMK A01 T02190154  RH  070%=      5-min Rain = 0
KMUS 030920Z 21014G19KT 21/16 A3004 RMK A01 T02130156  RH  074%=      5-min Rain = 0
KMUS 030925Z 20017G24KT 21/16 A3003 RMK A01 T02140157  RH  073%=      5-min Rain = 0
KMUS 030930Z 21016G22KT 22/16 A3003 RMK A01 T02160156  RH  072%=      5-min Rain = 0
KMUS 030935Z 20017G24KT 22/15 A3003 RMK A01 T02220152  RH  068%=      5-min Rain = 0
KMUS 030940Z 21016G22KT 23/15 A3003 RMK A01 T02250153  RH  067%=      5-min Rain = 0
KMUS 030945Z 26012KT 22/16 A3004 RMK A01 T02230158  RH  070%=      5-min Rain = 0
KMUS 030950Z 25013KT 22/16 A3004 RMK A01 T02180160  RH  073%=      5-min Rain = 0
KMUS 030955Z 23013KT 22/16 A3004 RMK A01 T02220160  RH  071%=      5-min Rain = 0
KMUS 031000Z 23013KT 22/16 A3004 RMK A01 T02230162  RH  072%=      5-min Rain = 0
KMUS 031005Z 22014G20KT 22/16 A3004 RMK A01 T02240162  RH  072%=      5-min Rain = 0
KMUS 031010Z 21014G19KT 23/16 A3004 RMK A01 T02250163  RH  071%=      5-min Rain = 0
KMUS 031015Z 21014KT 23/16 A3004 RMK A01 T02260164  RH  072%=      5-min Rain = 0
KMUS 031020Z 21012G17KT 23/17 A3005 RMK A01 T02260165  RH  072%=      5-min Rain = 0
KMUS 031025Z 20012KT 23/17 A3005 RMK A01 T02250166  RH  073%=      5-min Rain = 0
KMUS 031030Z 20010G15KT 22/17 A3005 RMK A01 T02240167  RH  073%=      5-min Rain = 0
KMUS 031035Z 21011KT 22/17 A3005 RMK A01 T02240166  RH  073%=      5-min Rain = 0
KMUS 031040Z 20011KT 23/17 A3006 RMK A01 T02260165  RH  072%=      5-min Rain = 0
KMUS 031045Z 21008KT 23/16 A3006 RMK A01 T02260164  RH  071%=      5-min Rain = 0
KMUS 031050Z 25005KT 23/16 A3006 RMK A01 T02260163  RH  071%=      5-min Rain = 0
KMUS 031055Z 27003KT 23/16 A3006 RMK A01 T02260163  RH  071%=      5-min Rain = 0
KMUS 031100Z 35001KT 23/16 A3006 RMK A01 T02260163  RH  071%=      5-min Rain = 0
KMUS 031105Z 12001G6KT 23/16 A3007 RMK A01 T02250163  RH  071%=      5-min Rain = 0
KMUS 031110Z 12005KT 22/17 A3007 RMK A01 T02230165  RH  073%=      5-min Rain = 0
KMUS 031115Z 06005KT 22/17 A3007 RMK A01 T02200166  RH  075%=      5-min Rain = 0
KMUS 031120Z 06007KT 22/17 A3007 RMK A01 T02180166  RH  076%=      5-min Rain = 0
KMUS 031125Z 08004KT 22/16 A3007 RMK A01 T02190164  RH  074%=      5-min Rain = 0
KMUS 031130Z 05006KT 22/16 A3008 RMK A01 T02200164  RH  074%=      5-min Rain = 0
KMUS 031135Z 06006KT 22/17 A3008 RMK A01 T02180166  RH  076%=      5-min Rain = 0
KMUS 031140Z 08004KT 22/16 A3008 RMK A01 T02170164  RH  075%=      5-min Rain = 0
KMUS 031145Z 06006KT 22/17 A3008 RMK A01 T02170167  RH  077%=      5-min Rain = 0
KMUS 031150Z 06004KT 22/17 A3008 RMK A01 T02160165  RH  077%=      5-min Rain = 0
KMUS 031155Z 04002KT 22/17 A3009 RMK A01 T02160168  RH  078%=      5-min Rain = 0
KMUS 031200Z 30005KT 22/17 A3009 RMK A01 T02150169  RH  079%=      5-min Rain = 0.01
KMUS 031205Z 32002KT 22/17 A3009 RMK A01 T02150171  RH  080%=      5-min Rain = 0
KMUS 031210Z 00002KT 22/17 A3009 RMK A01 T02150172  RH  081%=      5-min Rain = 0
KMUS 031215Z 33004KT 21/17 A301 RMK A01 T02140174  RH  082%=      5-min Rain = 0
KMUS 031220Z 02003KT 21/17 A301 RMK A01 T02140174  RH  082%=      5-min Rain = 0
KMUS 031225Z 01005KT 21/17 A301 RMK A01 T02140174  RH  082%=      5-min Rain = 0
KMUS 031230Z 35004KT 21/17 A301 RMK A01 T02130171  RH  081%=      5-min Rain = 0
KMUS 031235Z 01005KT 21/17 A301 RMK A01 T02120169  RH  081%=      5-min Rain = 0
KMUS 031240Z 02004KT 21/17 A301 RMK A01 T02140168  RH  079%=      5-min Rain = 0
KMUS 031245Z 04004KT 22/17 A301 RMK A01 T02150167  RH  078%=      5-min Rain = 0
KMUS 031250Z 06002KT 22/17 A3011 RMK A01 T02170169  RH  078%=      5-min Rain = 0
KMUS 031255Z 12003KT 22/17 A3011 RMK A01 T02200170  RH  077%=      5-min Rain = 0
KMUS 031300Z 08001KT 22/17 A3011 RMK A01 T02230170  RH  076%=      5-min Rain = 0
KMUS 031305Z 15002KT 23/17 A3011 RMK A01 T02260170  RH  074%=      5-min Rain = 0
KMUS 031310Z 25000KT 23/17 A3011 RMK A01 T02290171  RH  074%=      5-min Rain = 0
KMUS 031315Z 31001KT 23/17 A3011 RMK A01 T02310170  RH  072%=      5-min Rain = 0
KMUS 031320Z 07002KT 24/17 A3011 RMK A01 T02350172  RH  071%=      5-min Rain = 0
KMUS 031325Z 13001KT 24/17 A3012 RMK A01 T02360172  RH  071%=      5-min Rain = 0
KMUS 031330Z 15001KT 24/17 A3011 RMK A01 T02400173  RH  069%=      5-min Rain = 0
KMUS 031335Z 14002KT 24/17 A3012 RMK A01 T02410173  RH  069%=      5-min Rain = 0
KMUS 031340Z 15002KT 24/17 A3012 RMK A01 T02440173  RH  068%=      5-min Rain = 0
KMUS 031345Z 16002KT 25/17 A3012 RMK A01 T02450170  RH  066%=      5-min Rain = 0
KMUS 031350Z 14002KT 25/17 A3012 RMK A01 T02480166  RH  063%=      5-min Rain = 0
KMUS 031355Z 12001KT 25/16 A3012 RMK A01 T02530158  RH  058%=      5-min Rain = 0
KMUS 031400Z 15001KT 26/15 A3012 RMK A01 T02580154  RH  055%=      5-min Rain = 0
KMUS 031405Z 18001KT 26/15 A3013 RMK A01 T02600154  RH  054%=      5-min Rain = 0
KMUS 031410Z 16001KT 26/15 A3013 RMK A01 T02610152  RH  053%=      5-min Rain = 0
KMUS 031415Z 21002KT 26/15 A3013 RMK A01 T02630153  RH  053%=      5-min Rain = 0
KMUS 031420Z 18002KT 27/16 A3013 RMK A01 T02650158  RH  054%=      5-min Rain = 0
KMUS 031425Z 19003KT 27/16 A3013 RMK A01 T02670160  RH  054%=      5-min Rain = 0
KMUS 031430Z 15003KT 27/16 A3014 RMK A01 T02680157  RH  053%=      5-min Rain = 0
KMUS 031435Z 16005KT 27/16 A3013 RMK A01 T02690157  RH  053%=      5-min Rain = 0
KMUS 031440Z 21005KT 27/16 A3013 RMK A01 T02720160  RH  053%=      5-min Rain = 0
KMUS 031445Z 19007KT 27/16 A3013 RMK A01 T02720159  RH  052%=      5-min Rain = 0
KMUS 031450Z 18006KT 27/16 A3013 RMK A01 T02740162  RH  053%=      5-min Rain = 0
KMUS 031455Z 19006KT 28/16 A3014 RMK A01 T02760162  RH  052%=      5-min Rain = 0
KMUS 031500Z 16007KT 28/16 A3014 RMK A01 T02780162  RH  052%=      5-min Rain = 0
KMUS 031505Z 19007KT 28/16 A3014 RMK A01 T02770162  RH  052%=      5-min Rain = 0
KMUS 031510Z 19008KT 28/16 A3014 RMK A01 T02770163  RH  052%=      5-min Rain = 0
KMUS 031515Z 17008KT 28/17 A3014 RMK A01 T02790165  RH  052%=      5-min Rain = 0
KMUS 031520Z 17008KT 28/17 A3014 RMK A01 T02800165  RH  052%=      5-min Rain = 0
KMUS 031525Z 17007KT 28/17 A3014 RMK A01 T02810166  RH  052%=      5-min Rain = 0
KMUS 031530Z 19005KT 28/17 A3014 RMK A01 T02820166  RH  052%=      5-min Rain = 0
KMUS 031535Z 19006KT 28/17 A3014 RMK A01 T02840165  RH  051%=      5-min Rain = 0
KMUS 031540Z 17004G9KT 28/16 A3014 RMK A01 T02840162  RH  050%=      5-min Rain = 0
KMUS 031545Z 19006KT 28/16 A3014 RMK A01 T02840158  RH  049%=      5-min Rain = 0
KMUS 031550Z 18005G10KT 29/16 A3014 RMK A01 T02870162  RH  049%=      5-min Rain = 0
KMUS 031555Z 14005KT 29/16 A3014 RMK A01 T02880164  RH  049%=      5-min Rain = 0
KMUS 031600Z 14006KT 29/17 A3014 RMK A01 T02900165  RH  049%=      5-min Rain = 0
KMUS 031605Z 12005KT 29/16 A3014 RMK A01 T02900162  RH  048%=      5-min Rain = 0
KMUS 031610Z 13004G10KT 29/16 A3014 RMK A01 T02900162  RH  048%=      5-min Rain = 0
KMUS 031615Z 14006KT 29/16 A3014 RMK A01 T02930162  RH  047%=      5-min Rain = 0
KMUS 031620Z 13004KT 29/16 A3014 RMK A01 T02920161  RH  047%=      5-min Rain = 0
KMUS 031625Z 18004KT 30/16 A3014 RMK A01 T02960159  RH  046%=      5-min Rain = 0
KMUS 031630Z 15006KT 30/16 A3014 RMK A01 T02990158  RH  044%=      5-min Rain = 0
KMUS 031635Z 15005KT 30/15 A3015 RMK A01 T02990151  RH  043%=      5-min Rain = 0
KMUS 031640Z 17002KT 30/15 A3014 RMK A01 T02970150  RH  043%=      5-min Rain = 0
KMUS 031645Z 18004KT 30/15 A3014 RMK A01 T03010153  RH  043%=      5-min Rain = 0
KMUS 031650Z 14002G7KT 30/15 A3014 RMK A01 T03010150  RH  042%=      5-min Rain = 0
KMUS 031655Z 14005KT 30/15 A3014 RMK A01 T03020147  RH  041%=      5-min Rain = 0
KMUS 031700Z 17004KT 30/14 A3014 RMK A01 T03040139  RH  038%=      5-min Rain = 0
KMUS 031705Z 17004KT 31/14 A3014 RMK A01 T03090135  RH  036%=      5-min Rain = 0
KMUS 031710Z 12004G9KT 31/14 A3014 RMK A01 T03100143  RH  038%=      5-min Rain = 0
KMUS 031715Z 15005G11KT 31/14 A3014 RMK A01 T03100135  RH  036%=      5-min Rain = 0
KMUS 031720Z 15006KT 31/12 A3014 RMK A01 T03140122  RH  032%=      5-min Rain = 0
KMUS 031725Z 11006G12KT 32/13 A3014 RMK A01 T03160130  RH  034%=      5-min Rain = 0
KMUS 031730Z 11005G10KT 31/13 A3014 RMK A01 T03140132  RH  034%=      5-min Rain = 0
KMUS 031735Z 17007G12KT 32/13 A3014 RMK A01 T03170128  RH  033%=      5-min Rain = 0
KMUS 031740Z 15005G10KT 32/13 A3013 RMK A01 T03160132  RH  034%=      5-min Rain = 0
KMUS 031745Z 13006KT 32/13 A3013 RMK A01 T03160133  RH  034%=      5-min Rain = 0
KMUS 031750Z 17007KT 32/12 A3013 RMK A01 T03180123  RH  032%=      5-min Rain = 0
KMUS 031755Z 16008KT 32/13 A3013 RMK A01 T03200127  RH  032%=      5-min Rain = 0
KMUS 031800Z 15008G13KT 32/13 A3013 RMK A01 T03240131  RH  032%=      5-min Rain = 0
KMUS 031805Z 17007G12KT 33/13 A3013 RMK A01 T03250126  RH  031%=      5-min Rain = 0
KMUS 031810Z 13010G16KT 33/12 A3013 RMK A01 T03250121  RH  030%=      5-min Rain = 0
KMUS 031815Z 13008G14KT 32/12 A3013 RMK A01 T03210120  RH  030%=      5-min Rain = 0
KMUS 031820Z 16009G14KT 32/12 A3013 RMK A01 T03240123  RH  030%=      5-min Rain = 0
KMUS 031825Z 17005KT 32/13 A3013 RMK A01 T03230129  RH  032%=      5-min Rain = 0
KMUS 031830Z 16010KT 33/13 A3012 RMK A01 T03260132  RH  032%=      5-min Rain = 0
KMUS 031835Z 16009KT 33/13 A3012 RMK A01 T03270133  RH  032%=      5-min Rain = 0
KMUS 031840Z 16005G10KT 32/13 A3012 RMK A01 T03240132  RH  032%=      5-min Rain = 0
KMUS 031845Z 13009KT 33/14 A3012 RMK A01 T03260135  RH  033%=      5-min Rain = 0
KMUS 031850Z 16008KT 33/14 A3012 RMK A01 T03300135  RH  032%=      5-min Rain = 0
KMUS 031855Z 16008KT 33/14 A3011 RMK A01 T03290136  RH  032%=      5-min Rain = 0
KMUS 031900Z 13010G17KT 33/14 A3011 RMK A01 T03300135  RH  032%=      5-min Rain = 0
KMUS 031905Z 14011G17KT 33/13 A3011 RMK A01 T03330130  RH  030%=      5-min Rain = 0
KMUS 031910Z 12007G14KT 33/13 A3011 RMK A01 T03290130  RH  031%=      5-min Rain = 0
KMUS 031915Z 15010G15KT 33/13 A3011 RMK A01 T03300133  RH  031%=      5-min Rain = 0
KMUS 031920Z 16009G16KT 33/13 A301 RMK A01 T03250131  RH  032%=      5-min Rain = 0
KMUS 031925Z 19011G17KT 33/13 A301 RMK A01 T03270132  RH  032%=      5-min Rain = 0
KMUS 031930Z 16012KT 33/13 A301 RMK A01 T03330132  RH  031%=      5-min Rain = 0
KMUS 031935Z 17007G12KT 34/13 A301 RMK A01 T03350128  RH  030%=      5-min Rain = 0
KMUS 031940Z 18008G15KT 33/13 A3009 RMK A01 T03320128  RH  030%=      5-min Rain = 0
KMUS 031945Z 16010G15KT 33/13 A3009 RMK A01 T03280128  RH  031%=      5-min Rain = 0
KMUS 031950Z 13007G14KT 33/13 A3009 RMK A01 T03250127  RH  031%=      5-min Rain = 0
KMUS 031955Z 11011G16KT 33/12 A3009 RMK A01 T03290124  RH  030%=      5-min Rain = 0
KMUS 032000Z 14009G14KT 33/13 A3009 RMK A01 T03330126  RH  030%=      5-min Rain = 0
KMUS 032005Z 13006KT 33/13 A3009 RMK A01 T03310125  RH  030%=      5-min Rain = 0
KMUS 032010Z 17009G14KT 33/13 A3009 RMK A01 T03280125  RH  030%=      5-min Rain = 0
KMUS 032015Z 17009KT 33/12 A3009 RMK A01 T03280124  RH  030%=      5-min Rain = 0
KMUS 032020Z 12006KT 33/12 A3009 RMK A01 T03320122  RH  029%=      5-min Rain = 0
KMUS 032025Z 14007G14KT 33/12 A3008 RMK A01 T03330123  RH  029%=      5-min Rain = 0
KMUS 032030Z 13011G16KT 33/12 A3008 RMK A01 T03330121  RH  029%=      5-min Rain = 0
KMUS 032035Z 15007G13KT 33/12 A3008 RMK A01 T03330119  RH  028%=      5-min Rain = 0
KMUS 032040Z 16010G15KT 34/12 A3008 RMK A01 T03350120  RH  028%=      5-min Rain = 0
KMUS 032045Z 15011G19KT 34/12 A3008 RMK A01 T03370120  RH  028%=      5-min Rain = 0
KMUS 032050Z 14013G18KT 34/12 A3008 RMK A01 T03420120  RH  027%=      5-min Rain = 0
KMUS 032055Z 12008KT 34/12 A3008 RMK A01 T03390120  RH  028%=      5-min Rain = 0
KMUS 032100Z 16010G16KT 34/12 A3008 RMK A01 T03410118  RH  027%=      5-min Rain = 0
KMUS 032105Z 12008G15KT 34/12 A3008 RMK A01 T03430117  RH  026%=      5-min Rain = 0
KMUS 032110Z 14010G18KT 34/12 A3008 RMK A01 T03360115  RH  027%=      5-min Rain = 0
KMUS 032115Z 14009G15KT 34/12 A3008 RMK A01 T03400115  RH  026%=      5-min Rain = 0
KMUS 032120Z 14013KT 34/11 A3008 RMK A01 T03400113  RH  026%=      5-min Rain = 0
KMUS 032125Z 15011KT 34/11 A3008 RMK A01 T03370113  RH  026%=      5-min Rain = 0
KMUS 032130Z 16007G13KT 34/11 A3008 RMK A01 T03350112  RH  027%=      5-min Rain = 0
KMUS 032135Z 15007KT 33/11 A3008 RMK A01 T03340112  RH  027%=      5-min Rain = 0
KMUS 032140Z 17008KT 34/11 A3008 RMK A01 T03400113  RH  026%=      5-min Rain = 0
KMUS 032145Z 17009G14KT 35/11 A3008 RMK A01 T03460113  RH  025%=      5-min Rain = 0
KMUS 032150Z 14010G18KT 34/11 A3007 RMK A01 T03390112  RH  026%=      5-min Rain = 0
KMUS 032155Z 14011KT 34/11 A3007 RMK A01 T03370113  RH  027%=      5-min Rain = 0
KMUS 032200Z 13011G19KT 34/11 A3007 RMK A01 T03380112  RH  026%=      5-min Rain = 0
KMUS 032205Z 16010G15KT 34/11 A3007 RMK A01 T03410112  RH  026%=      5-min Rain = 0
KMUS 032210Z 18013G18KT 35/11 A3006 RMK A01 T03470109  RH  024%=      5-min Rain = 0
KMUS 032215Z 16012G18KT 35/11 A3006 RMK A01 T03510110  RH  024%=      5-min Rain = 0
KMUS 032220Z 14012G21KT 34/11 A3006 RMK A01 T03390106  RH  025%=      5-min Rain = 0
KMUS 032225Z 13006KT 34/11 A3005 RMK A01 T03380107  RH  025%=      5-min Rain = 0
KMUS 032230Z 14010G18KT 34/11 A3005 RMK A01 T03420105  RH  024%=      5-min Rain = 0
KMUS 032235Z 16009KT 34/11 A3005 RMK A01 T03420106  RH  025%=      5-min Rain = 0
KMUS 032240Z 16009G15KT 34/11 A3005 RMK A01 T03410107  RH  025%=      5-min Rain = 0
KMUS 032245Z 15012KT 34/11 A3005 RMK A01 T03440105  RH  024%=      5-min Rain = 0
KMUS 032250Z 15010KT 35/11 A3005 RMK A01 T03460109  RH  025%=      5-min Rain = 0
KMUS 032255Z 16011G17KT 35/11 A3005 RMK A01 T03460106  RH  024%=      5-min Rain = 0
KMUS 032300Z 16012KT 35/11 A3005 RMK A01 T03460107  RH  024%=      5-min Rain = 0
KMUS 032305Z 15010KT 34/11 A3005 RMK A01 T03440106  RH  024%=      5-min Rain = 0
KMUS 032310Z 15010G16KT 35/11 A3005 RMK A01 T03460110  RH  025%=      5-min Rain = 0
KMUS 032315Z 16009G15KT 34/11 A3004 RMK A01 T03430111  RH  025%=      5-min Rain = 0
KMUS 032320Z 16012KT 34/11 A3004 RMK A01 T03420108  RH  025%=      5-min Rain = 0
KMUS 032325Z 15009G15KT 34/11 A3005 RMK A01 T03370109  RH  026%=      5-min Rain = 0
KMUS 032330Z 16011G16KT 33/11 A3004 RMK A01 T03340111  RH  027%=      5-min Rain = 0
KMUS 032335Z 17007KT 33/11 A3005 RMK A01 T03310111  RH  027%=      5-min Rain = 0
KMUS 032340Z 17009KT 33/11 A3005 RMK A01 T03320111  RH  027%=      5-min Rain = 0
KMUS 032345Z 16011G16KT 34/11 A3004 RMK A01 T03350111  RH  026%=      5-min Rain = 0
KMUS 032350Z 16012KT 34/11 A3005 RMK A01 T03350109  RH  026%=      5-min Rain = 0
KMUS 032355Z 16010G17KT 34/11 A3004 RMK A01 T03350109  RH  026%=      5-min Rain = 0
KMUS 040000Z 15010G15KT 34/11 A3005 RMK A01 T03360109  RH  026%=      5-min Rain = 0
KMUS 040005Z 14008KT 33/11 A3005 RMK A01 T03340109  RH  026%=      5-min Rain = 0
KMUS 040010Z 14008G13KT 34/11 A3005 RMK A01 T03360107  RH  026%=      5-min Rain = 0
KMUS 040015Z 15011KT 33/11 A3005 RMK A01 T03330106  RH  026%=      5-min Rain = 0
KMUS 040020Z 15010KT 34/11 A3005 RMK A01 T03350105  RH  025%=      5-min Rain = 0
KMUS 040025Z 14007KT 34/11 A3005 RMK A01 T03370106  RH  025%=      5-min Rain = 0
KMUS 040030Z 13008KT 34/11 A3005 RMK A01 T03370107  RH  026%=      5-min Rain = 0
KMUS 040035Z 12008KT 33/11 A3006 RMK A01 T03310106  RH  026%=      5-min Rain = 0
KMUS 040040Z 13009G15KT 33/11 A3005 RMK A01 T03310107  RH  026%=      5-min Rain = 0
KMUS 040045Z 14009KT 33/11 A3005 RMK A01 T03330105  RH  026%=      5-min Rain = 0
KMUS 040050Z 13011KT 33/10 A3005 RMK A01 T03340103  RH  025%=      5-min Rain = 0
KMUS 040055Z 13010KT 33/10 A3005 RMK A01 T03320102  RH  025%=      5-min Rain = 0
KMUS 040100Z 14010G15KT 33/10 A3005 RMK A01 T03300102  RH  025%=      5-min Rain = 0
KMUS 040105Z 14010KT 33/10 A3005 RMK A01 T03280104  RH  026%=      5-min Rain = 0
KMUS 040110Z 14009KT 33/10 A3005 RMK A01 T03260103  RH  026%=      5-min Rain = 0
KMUS 040115Z 15009KT 32/10 A3005 RMK A01 T03240103  RH  027%=      5-min Rain = 0
KMUS 040120Z 14010KT 32/10 A3005 RMK A01 T03210102  RH  027%=      5-min Rain = 0
KMUS 040125Z 15008KT 32/10 A3005 RMK A01 T03180103  RH  027%=      5-min Rain = 0
KMUS 040130Z 14008KT 32/10 A3006 RMK A01 T03160104  RH  028%=      5-min Rain = 0
KMUS 040135Z 14009KT 31/10 A3006 RMK A01 T03130104  RH  028%=      5-min Rain = 0
KMUS 040140Z 13008KT 31/10 A3006 RMK A01 T03110104  RH  029%=      5-min Rain = 0
KMUS 040145Z 14008KT 31/11 A3006 RMK A01 T03070105  RH  030%=      5-min Rain = 0
KMUS 040150Z 14006KT 30/11 A3007 RMK A01 T03030106  RH  030%=      5-min Rain = 0
KMUS 040155Z 13005KT 30/11 A3007 RMK A01 T02990107  RH  031%=      5-min Rain = 0
KMUS 040200Z 14005KT 30/11 A3007 RMK A01 T02950108  RH  032%=      5-min Rain = 0
KMUS 040205Z 14005KT 29/11 A3007 RMK A01 T02910110  RH  034%=      5-min Rain = 0
KMUS 040210Z 14005KT 29/11 A3007 RMK A01 T02850112  RH  035%=      5-min Rain = 0
KMUS 040215Z 14005KT 28/12 A3007 RMK A01 T02810116  RH  037%=      5-min Rain = 0
KMUS 040220Z 14006KT 28/12 A3008 RMK A01 T02770117  RH  038%=      5-min Rain = 0
KMUS 040225Z 14007KT 28/12 A3008 RMK A01 T02760116  RH  038%=      5-min Rain = 0
KMUS 040230Z 15006KT 28/12 A3008 RMK A01 T02750116  RH  039%=      5-min Rain = 0
KMUS 040235Z 15006KT 27/12 A3008 RMK A01 T02740117  RH  039%=      5-min Rain = 0
KMUS 040240Z 15007KT 27/12 A3008 RMK A01 T02740118  RH  039%=      5-min Rain = 0
KMUS 040245Z 14007KT 28/12 A3008 RMK A01 T02750118  RH  039%=      5-min Rain = 0
KMUS 040250Z 14007KT 28/12 A3008 RMK A01 T02760118  RH  039%=      5-min Rain = 0
KMUS 040255Z 14006KT 28/12 A3008 RMK A01 T02760118  RH  039%=      5-min Rain = 0
KMUS 040300Z 13006KT 27/12 A3008 RMK A01 T02730120  RH  040%=      5-min Rain = 0
KMUS 040305Z 13005KT 27/12 A3009 RMK A01 T02680123  RH  042%=      5-min Rain = 0
KMUS 040310Z 13004KT 26/13 A3009 RMK A01 T02630126  RH  044%=      5-min Rain = 0
KMUS 040315Z 12004KT 26/13 A3009 RMK A01 T02590128  RH  046%=      5-min Rain = 0
KMUS 040320Z 11003KT 26/13 A301 RMK A01 T02560130  RH  047%=      5-min Rain = 0
KMUS 040325Z 11001KT 26/13 A301 RMK A01 T02550130  RH  048%=      5-min Rain = 0
KMUS 040330Z 31008G13KT 26/14 A3011 RMK A01 T02550137  RH  050%=      5-min Rain = 0
KMUS 040335Z 36012G20KT 26/14 A3012 RMK A01 T02620135  RH  047%=      5-min Rain = 0
KMUS 040340Z 35014G19KT 27/14 A3012 RMK A01 T02660136  RH  046%=      5-min Rain = 0
KMUS 040345Z 34013G23KT 26/14 A3013 RMK A01 T02630142  RH  049%=      5-min Rain = 0
KMUS 040350Z 35017G25KT 25/15 A3013 RMK A01 T02530148  RH  055%=      5-min Rain = 0
KMUS 040355Z 36016G24KT 25/15 A3014 RMK A01 T02470152  RH  058%=      5-min Rain = 0
KMUS 040400Z 35016KT 24/15 A3014 RMK A01 T02430153  RH  060%=      5-min Rain = 0
KMUS 040405Z 36015G20KT 24/15 A3014 RMK A01 T02400154  RH  061%=      5-min Rain = 0
KMUS 040410Z 01014G21KT 24/15 A3014 RMK A01 T02400153  RH  061%=      5-min Rain = 0
KMUS 040415Z 01015G20KT 24/15 A3014 RMK A01 T02390154  RH  062%=      5-min Rain = 0
KMUS 040420Z 01013G18KT 24/15 A3014 RMK A01 T02380153  RH  062%=      5-min Rain = 0
KMUS 040425Z 01012G17KT 24/15 A3014 RMK A01 T02390153  RH  061%=      5-min Rain = 0
KMUS 040430Z 01012G17KT 24/15 A3014 RMK A01 T02400151  RH  060%=      5-min Rain = 0
KMUS 040435Z 01011G16KT 24/15 A3014 RMK A01 T02430150  RH  059%=      5-min Rain = 0
KMUS 040440Z 01012G18KT 24/15 A3014 RMK A01 T02420151  RH  059%=      5-min Rain = 0
KMUS 040445Z 01012G17KT 24/15 A3014 RMK A01 T02410151  RH  060%=      5-min Rain = 0
KMUS 040450Z 03010KT 24/15 A3014 RMK A01 T02410151  RH  060%=      5-min Rain = 0
KMUS 040455Z 03009KT 24/15 A3014 RMK A01 T02430149  RH  058%=      5-min Rain = 0

Page generated in 0.009 seconds.